Lexington, Michigan
Current Conditions -  °F | °C
As of 11:00 PM on Thursday 20 Nov 2014 (Local Time) from CYZR Reporting Station
Clear Clear  
Wind Chill:   Ceiling: Unl
Heat Index: 14°   Visibility: 9mi
Dew Point:   Wind: 8mph
Humidity: 73%   Direction: 270°W
Pressure: 30.11"   Gusts: NA
Location:  43.27°N, 82.53°W
Report Text: CYZR 210400Z AUTO 27007KT 9SM CLR M10/M14 A3011 RMK SLP206
Loading
Personal Weather Stations






























Interactive Weather Map New forecast layout! Learn more

10-Day Weather Forecast

Advertisements
Track Severe Weather on mobile